createdAt,value
2017-12-20T00:02:35.324Z,15.87
2017-12-20T00:17:34.716Z,14.77
2017-12-20T00:32:34.632Z,17.30
2017-12-20T00:47:35.588Z,16.27
2017-12-20T01:02:34.497Z,16.67
2017-12-20T01:17:34.924Z,16.07
2017-12-20T01:32:34.861Z,14.20
2017-12-20T01:47:34.838Z,15.00
2017-12-20T02:02:34.789Z,15.40
2017-12-20T02:17:35.154Z,15.13
2017-12-20T02:32:35.158Z,13.45
2017-12-20T02:47:38.112Z,10.97
2017-12-20T03:02:36.935Z,11.27
2017-12-20T03:17:35.368Z,13.30
2017-12-20T03:32:35.259Z,17.00
2017-12-20T03:47:37.203Z,17.20
2017-12-20T04:02:35.151Z,16.00
2017-12-20T04:17:36.725Z,17.27
2017-12-20T04:32:36.715Z,15.87
2017-12-20T04:47:37.468Z,13.83
2017-12-20T05:02:38.327Z,15.07
2017-12-20T05:17:34.781Z,15.90
2017-12-20T05:32:36.693Z,15.37
2017-12-20T05:47:37.663Z,15.23
2017-12-20T06:02:35.520Z,17.13
2017-12-20T06:17:35.267Z,18.03
2017-12-20T06:32:34.887Z,20.10
2017-12-20T06:47:34.864Z,20.03
2017-12-20T07:02:35.776Z,18.43
2017-12-20T07:17:35.252Z,17.60
2017-12-20T07:32:35.129Z,16.30
2017-12-20T07:47:35.088Z,15.80
2017-12-20T08:02:34.760Z,17.50
2017-12-20T08:17:36.402Z,15.10
2017-12-20T08:32:40.519Z,13.80
2017-12-20T08:47:35.223Z,13.53
2017-12-20T09:02:38.209Z,14.73
2017-12-20T09:17:36.079Z,12.50
2017-12-20T09:32:34.503Z,13.00
2017-12-20T09:47:36.428Z,13.13
2017-12-20T10:02:34.336Z,11.47
2017-12-20T10:17:36.865Z,11.50
2017-12-20T10:32:34.905Z,10.40
2017-12-20T10:47:34.779Z,9.90
2017-12-20T11:02:34.547Z,9.17
2017-12-20T11:17:36.729Z,9.90
2017-12-20T11:32:36.599Z,8.97
2017-12-20T11:47:34.654Z,7.90
2017-12-20T12:02:34.564Z,8.37
2017-12-20T12:17:34.641Z,9.00
2017-12-20T12:32:35.491Z,8.97
2017-12-20T12:47:36.433Z,8.20
2017-12-20T13:02:36.172Z,9.33
2017-12-20T13:17:34.355Z,9.37
2017-12-20T13:32:36.518Z,8.57
2017-12-20T13:47:35.254Z,10.20
2017-12-20T14:02:34.340Z,9.87
2017-12-20T14:17:37.135Z,9.17
2017-12-20T14:32:35.191Z,10.17
2017-12-20T14:47:35.226Z,8.85
2017-12-20T15:02:36.847Z,9.13
2017-12-20T15:17:34.988Z,8.90
2017-12-20T15:32:35.472Z,11.27
2017-12-20T15:47:34.961Z,11.70
2017-12-20T16:02:34.856Z,12.37
2017-12-20T16:17:34.875Z,11.07
2017-12-20T16:32:37.168Z,9.25
2017-12-20T16:47:39.331Z,13.45
2017-12-20T17:02:35.053Z,15.05
2017-12-20T17:17:35.183Z,13.45
2017-12-20T17:32:35.545Z,14.68
2017-12-20T17:47:35.967Z,12.68
2017-12-20T18:02:34.892Z,11.60
2017-12-20T18:17:36.294Z,10.52
2017-12-20T18:47:39.518Z,9.77
2017-12-20T19:02:37.178Z,10.85
2017-12-20T19:17:40.301Z,10.75
2017-12-20T19:32:34.483Z,9.88
2017-12-20T19:47:35.400Z,9.77
2017-12-20T20:02:48.653Z,10.85
2017-12-20T20:17:35.994Z,11.38
2017-12-20T20:32:34.651Z,9.27
2017-12-20T20:47:36.544Z,9.80
2017-12-20T21:02:34.528Z,10.13
2017-12-20T21:17:34.997Z,10.07
2017-12-20T21:32:34.910Z,10.18
2017-12-20T21:47:34.769Z,9.55
2017-12-20T22:02:36.490Z,11.20
2017-12-20T22:17:38.264Z,10.43
2017-12-20T22:32:36.064Z,10.38
2017-12-20T22:47:34.307Z,8.65
2017-12-20T23:02:35.022Z,9.48
2017-12-20T23:17:34.380Z,9.05
2017-12-20T23:32:34.841Z,8.63
2017-12-20T23:47:35.172Z,8.15
